Time;durP1;ratioP1;P1;durP2;ratioP2;P2;SDS_P1;SDS_P2;PMS_P1;PMS_P2;Temp;Humidity;BMP_temperature;BMP_pressure;BME280_temperature;BME280_humidity;BME280_pressure;Samples;Min_cycle;Max_cycle;Signal;HPM_P1;HPM_P2
2021/01/12 00:00:24;;;;;;;12.73;7.82;;;5.40;99.90;;;;;;4867298;29;20022;-93
2021/01/12 00:02:54;;;;;;;13.32;8.20;;;5.40;99.90;;;;;;4864411;29;20148;-92
2021/01/12 00:05:23;;;;;;;13.48;8.40;;;5.50;99.90;;;;;;4873932;29;20134;-94
2021/01/12 00:07:51;;;;;;;17.13;7.93;;;5.50;99.90;;;;;;4839755;29;20086;-94
2021/01/12 00:10:23;;;;;;;14.55;8.52;;;5.50;99.90;;;;;;4837492;29;20093;-93
2021/01/12 00:12:50;;;;;;;10.45;7.63;;;5.50;99.90;;;;;;4834242;29;20037;-94
2021/01/12 00:15:16;;;;;;;11.93;7.75;;;5.50;99.90;;;;;;4860132;29;20033;-93
2021/01/12 00:17:42;;;;;;;11.57;7.30;;;5.60;99.90;;;;;;4852407;29;20041;-93
2021/01/12 00:20:10;;;;;;;12.10;7.97;;;5.60;99.90;;;;;;4868129;29;20101;-93
2021/01/12 00:22:36;;;;;;;11.35;7.13;;;5.60;99.90;;;;;;4863896;29;20514;-94
2021/01/12 00:25:03;;;;;;;9.90;7.05;;;5.60;99.90;;;;;;4838671;29;20026;-94
2021/01/12 00:27:29;;;;;;;12.88;6.95;;;5.60;99.90;;;;;;4853035;29;20049;-94
2021/01/12 00:29:57;;;;;;;10.93;7.70;;;5.60;99.90;;;;;;4853092;29;20041;-93
2021/01/12 00:32:25;;;;;;;9.70;6.55;;;5.60;99.90;;;;;;4860430;29;20021;-94
2021/01/12 00:34:52;;;;;;;11.30;6.97;;;5.60;99.90;;;;;;4883169;29;20032;-93
2021/01/12 00:37:18;;;;;;;12.40;6.85;;;5.60;99.90;;;;;;4867870;29;20037;-94
2021/01/12 00:39:45;;;;;;;19.05;7.50;;;5.60;99.90;;;;;;4883350;29;20021;-92
2021/01/12 00:42:12;;;;;;;9.85;6.13;;;5.60;99.90;;;;;;4868141;29;20045;-93
2021/01/12 00:44:39;;;;;;;12.48;7.63;;;5.70;99.90;;;;;;4867952;29;20056;-91
2021/01/12 00:47:09;;;;;;;10.80;6.18;;;5.70;99.90;;;;;;4876562;29;20021;-95
2021/01/12 00:49:36;;;;;;;8.15;5.70;;;5.70;99.90;;;;;;4885845;29;20029;-94
2021/01/12 00:52:07;;;;;;;9.15;5.60;;;5.70;99.90;;;;;;4892323;29;20044;-94
2021/01/12 00:54:32;;;;;;;8.07;5.60;;;5.70;99.90;;;;;;4887030;29;20037;-94
2021/01/12 00:56:58;;;;;;;8.90;6.72;;;5.70;99.90;;;;;;4872376;29;20052;-93
2021/01/12 00:59:24;;;;;;;9.20;5.80;;;5.70;99.90;;;;;;4870304;29;20116;-94
2021/01/12 01:01:50;;;;;;;9.88;6.15;;;5.80;99.90;;;;;;4860902;29;20029;-92
2021/01/12 01:04:17;;;;;;;7.40;5.45;;;5.70;99.90;;;;;;4869374;29;20025;-92
2021/01/12 01:06:44;;;;;;;10.32;5.55;;;5.70;99.90;;;;;;4872934;29;20076;-91
2021/01/12 01:09:12;;;;;;;10.13;5.75;;;5.70;99.90;;;;;;4849902;29;20113;-92
2021/01/12 01:11:45;;;;;;;9.55;6.35;;;5.70;99.90;;;;;;4842711;29;20052;-91
2021/01/12 01:14:11;;;;;;;8.23;6.10;;;5.80;99.90;;;;;;4870343;29;20038;-92
2021/01/12 01:16:48;;;;;;;12.70;6.63;;;5.70;99.90;;;;;;4879743;29;20491;-92
2021/01/12 01:19:14;;;;;;;11.50;7.07;;;5.70;99.90;;;;;;4876981;29;20117;-93
2021/01/12 01:21:40;;;;;;;12.63;6.70;;;5.70;99.90;;;;;;4883119;29;20118;-92
2021/01/12 01:24:09;;;;;;;12.07;6.10;;;5.70;99.90;;;;;;4866986;29;20075;-91
2021/01/12 01:26:34;;;;;;;10.77;6.40;;;5.80;99.90;;;;;;4850889;29;20074;-94
2021/01/12 01:29:01;;;;;;;9.15;5.43;;;5.80;99.90;;;;;;4833174;29;20038;-93
2021/01/12 01:31:42;;;;;;;11.50;6.53;;;5.80;99.90;;;;;;4834546;29;20029;-93
2021/01/12 01:34:08;;;;;;;10.35;6.32;;;5.80;99.90;;;;;;4833520;29;20042;-93
2021/01/12 01:36:34;;;;;;;9.55;6.18;;;5.80;99.90;;;;;;4860184;29;20495;-95
2021/01/12 01:39:01;;;;;;;9.45;5.75;;;5.90;99.90;;;;;;4860186;29;20066;-95
2021/01/12 01:41:27;;;;;;;11.55;6.63;;;5.80;99.90;;;;;;4884948;29;20021;-96
2021/01/12 01:43:55;;;;;;;11.55;6.03;;;5.80;99.90;;;;;;4888675;29;20026;-94
2021/01/12 01:46:21;;;;;;;9.70;5.95;;;5.80;99.90;;;;;;4857103;29;20062;-95
2021/01/12 01:48:48;;;;;;;10.95;6.80;;;5.80;99.90;;;;;;4866045;29;20025;-95
2021/01/12 01:51:15;;;;;;;12.25;7.05;;;5.80;99.90;;;;;;4875646;29;20032;-94
2021/01/12 01:53:42;;;;;;;11.13;7.30;;;5.70;99.90;;;;;;4906915;29;20025;-96
2021/01/12 01:56:08;;;;;;;14.65;8.63;;;5.70;99.90;;;;;;4877702;29;20131;-96
2021/01/12 01:58:42;;;;;;;11.98;6.78;;;5.80;99.90;;;;;;4884568;29;20032;-96
2021/01/12 02:01:09;;;;;;;8.75;5.55;;;5.80;99.90;;;;;;4893880;29;20060;-94
2021/01/12 02:03:59;;;;;;;6.20;3.95;;;5.80;99.90;;;;;;4913133;29;20024;-95
2021/01/12 02:06:34;;;;;;;5.78;4.60;;;5.80;99.90;;;;;;4895737;29;20029;-94
2021/01/12 02:09:00;;;;;;;5.00;3.50;;;5.80;99.90;;;;;;4899598;29;20088;-93
2021/01/12 02:11:29;;;;;;;5.78;4.07;;;5.80;99.90;;;;;;4908143;29;20049;-92
2021/01/12 02:14:01;;;;;;;5.68;4.18;;;5.80;99.90;;;;;;4908040;29;20021;-92
2021/01/12 02:16:29;;;;;;;6.65;3.70;;;5.80;99.90;;;;;;4905528;29;20021;-92
2021/01/12 02:18:57;;;;;;;5.97;3.70;;;5.80;99.90;;;;;;4900485;29;20017;-92
2021/01/12 02:21:23;;;;;;;4.85;3.58;;;5.80;99.90;;;;;;4888393;29;20037;-93
2021/01/12 02:23:54;;;;;;;4.25;3.08;;;5.80;99.90;;;;;;4881895;29;20045;-91
2021/01/12 02:26:21;;;;;;;4.35;3.28;;;5.80;99.90;;;;;;4887962;29;20092;-95
2021/01/12 02:28:47;;;;;;;5.43;3.92;;;5.90;99.90;;;;;;4881788;29;20364;-92
2021/01/12 02:31:15;;;;;;;7.43;4.30;;;5.80;99.90;;;;;;4878165;29;20124;-93
2021/01/12 02:33:42;;;;;;;8.57;4.53;;;5.80;99.90;;;;;;4877255;29;20021;-92
2021/01/12 02:36:15;;;;;;;8.25;4.47;;;5.80;99.90;;;;;;4887618;29;20040;-93
2021/01/12 02:38:45;;;;;;;5.60;3.95;;;5.80;99.90;;;;;;4853388;29;20048;-92
2021/01/12 02:41:18;;;;;;;4.68;3.53;;;5.90;99.90;;;;;;4878061;29;20029;-92
2021/01/12 02:43:44;;;;;;;7.38;4.18;;;5.90;99.90;;;;;;4870340;29;20061;-93
2021/01/12 02:46:14;;;;;;;7.78;3.25;;;5.90;99.90;;;;;;4872756;29;20017;-91
2021/01/12 02:48:39;;;;;;;7.97;3.53;;;6.00;99.90;;;;;;4877728;29;20168;-92
2021/01/12 02:51:10;;;;;;;5.82;3.25;;;6.00;99.90;;;;;;4870560;29;20066;-91
2021/01/12 02:53:38;;;;;;;4.63;2.75;;;5.90;99.90;;;;;;4897112;29;20028;-93
2021/01/12 02:56:05;;;;;;;6.97;3.63;;;6.00;99.90;;;;;;4889007;29;20145;-95
2021/01/12 02:58:31;;;;;;;3.50;2.33;;;6.00;99.90;;;;;;4856299;29;20379;-95
2021/01/12 03:00:56;;;;;;;2.20;2.00;;;6.00;99.90;;;;;;4869448;29;20035;-94
2021/01/12 03:03:23;;;;;;;3.03;1.88;;;6.00;99.90;;;;;;4890208;29;20032;-94
2021/01/12 03:05:50;;;;;;;2.90;2.00;;;6.10;99.90;;;;;;4889503;29;20089;-94
2021/01/12 03:11:38;;;;;;;2.80;1.60;;;6.10;99.90;;;;;;4902445;29;20101;-94
2021/01/12 03:14:04;;;;;;;3.67;2.40;;;6.10;99.90;;;;;;4884570;29;20037;-91
2021/01/12 03:16:33;;;;;;;3.50;1.92;;;6.10;99.90;;;;;;4883909;29;20018;-92
2021/01/12 03:19:03;;;;;;;1.92;1.55;;;6.20;99.90;;;;;;4868982;29;20039;-94
2021/01/12 03:21:28;;;;;;;2.42;1.98;;;6.10;99.90;;;;;;4853646;29;20040;-94
2021/01/12 03:23:54;;;;;;;1.50;1.40;;;6.10;99.90;;;;;;4851495;29;20390;-92
2021/01/12 03:26:21;;;;;;;2.08;1.70;;;6.10;99.90;;;;;;4863930;29;20033;-93
2021/01/12 03:28:48;;;;;;;1.50;1.40;;;6.10;99.90;;;;;;4874036;29;20056;-91
2021/01/12 03:31:14;;;;;;;3.90;1.67;;;6.20;99.90;;;;;;4874712;29;20115;-92
2021/01/12 03:33:40;;;;;;;1.75;1.50;;;6.10;99.90;;;;;;4890909;29;20064;-92
2021/01/12 03:36:07;;;;;;;1.30;1.20;;;6.10;99.90;;;;;;4867224;29;20053;-93
2021/01/12 03:38:33;;;;;;;2.47;1.48;;;6.10;99.90;;;;;;4871280;29;20033;-93
2021/01/12 03:40:59;;;;;;;3.60;1.77;;;6.10;99.90;;;;;;4862025;29;20034;-95
2021/01/12 03:43:25;;;;;;;2.05;1.50;;;6.10;99.90;;;;;;4869301;29;20029;-93
2021/01/12 03:45:53;;;;;;;1.42;1.30;;;6.10;99.90;;;;;;4879319;29;20032;-94
2021/01/12 03:48:22;;;;;;;1.20;1.10;;;6.10;99.90;;;;;;4865544;29;20048;-93
2021/01/12 03:51:02;;;;;;;1.85;1.60;;;6.10;99.90;;;;;;4868117;29;20097;-96
2021/01/12 03:53:28;;;;;;;1.77;1.40;;;6.10;99.90;;;;;;4868143;29;20021;-95
2021/01/12 03:56:03;;;;;;;2.25;1.52;;;6.10;99.90;;;;;;4868900;29;20045;-96
2021/01/12 03:58:29;;;;;;;2.42;1.80;;;6.20;99.90;;;;;;4865134;29;20045;-96
2021/01/12 04:00:55;;;;;;;1.80;1.60;;;6.10;99.90;;;;;;4860787;29;20133;-96
2021/01/12 04:03:20;;;;;;;2.97;1.63;;;6.10;99.90;;;;;;4857541;29;20060;-92
2021/01/12 04:05:47;;;;;;;1.52;1.40;;;6.10;99.90;;;;;;4853690;29;20033;-94
2021/01/12 04:08:16;;;;;;;1.55;1.42;;;6.10;99.90;;;;;;4865671;29;20037;-93
2021/01/12 04:10:42;;;;;;;2.05;1.90;;;6.10;99.90;;;;;;4849474;29;20037;-95
2021/01/12 04:13:09;;;;;;;1.90;1.58;;;6.20;99.90;;;;;;4850420;29;20045;-95
2021/01/12 04:15:35;;;;;;;1.92;1.40;;;6.10;99.90;;;;;;4843516;29;20077;-94
2021/01/12 04:18:01;;;;;;;1.20;1.10;;;6.10;99.90;;;;;;4851255;29;20045;-93
2021/01/12 04:20:26;;;;;;;3.15;1.52;;;6.10;99.90;;;;;;4850166;29;20026;-91
2021/01/12 04:22:52;;;;;;;3.38;1.67;;;6.10;99.90;;;;;;4854110;29;20125;-92
2021/01/12 04:25:19;;;;;;;1.88;1.33;;;6.10;99.90;;;;;;4867115;29;20025;-92
2021/01/12 04:27:46;;;;;;;1.70;1.40;;;6.10;99.90;;;;;;4883832;29;20044;-92
2021/01/12 04:30:14;;;;;;;1.80;1.45;;;6.10;99.90;;;;;;4876837;29;20044;-92
2021/01/12 04:32:40;;;;;;;2.25;1.55;;;6.20;99.90;;;;;;4881637;29;20517;-92
2021/01/12 04:35:06;;;;;;;1.50;1.20;;;6.20;99.90;;;;;;4883993;29;20096;-92
2021/01/12 04:37:32;;;;;;;1.77;1.10;;;6.10;99.90;;;;;;4894354;29;20048;-91
2021/01/12 04:39:57;;;;;;;2.08;1.23;;;6.20;99.90;;;;;;4905017;29;20060;-93
2021/01/12 04:42:23;;;;;;;1.88;1.45;;;6.20;99.90;;;;;;4887896;29;20104;-91
2021/01/12 04:45:00;;;;;;;1.95;1.35;;;6.20;99.90;;;;;;4897359;29;20095;-91
2021/01/12 04:47:26;;;;;;;2.92;1.45;;;6.20;99.90;;;;;;4907301;29;20013;-91
2021/01/12 04:49:53;;;;;;;2.15;1.50;;;6.20;99.90;;;;;;4891054;29;20101;-92
2021/01/12 04:52:19;;;;;;;2.08;1.20;;;6.10;99.90;;;;;;4875172;29;20032;-91
2021/01/12 04:54:51;;;;;;;1.90;1.60;;;6.10;99.90;;;;;;4890930;29;20017;-90
2021/01/12 04:57:17;;;;;;;2.53;1.73;;;6.20;99.90;;;;;;4890920;29;20037;-92
2021/01/12 04:59:44;;;;;;;2.38;1.27;;;6.10;99.90;;;;;;4890940;29;20021;-92
2021/01/12 05:02:15;;;;;;;2.17;1.60;;;6.20;99.90;;;;;;4906864;29;20080;-91
2021/01/12 05:04:45;;;;;;;3.33;2.08;;;6.20;99.90;;;;;;4890195;29;20017;-92
2021/01/12 05:07:10;;;;;;;3.30;2.13;;;6.20;99.90;;;;;;4887387;29;20025;-91
2021/01/12 05:09:41;;;;;;;1.83;1.50;;;6.10;99.90;;;;;;4906740;29;20016;-93
2021/01/12 05:12:09;;;;;;;3.60;2.05;;;6.20;99.90;;;;;;4878924;29;20032;-91
2021/01/12 05:14:37;;;;;;;1.52;1.42;;;6.20;99.90;;;;;;4871401;29;20115;-93
2021/01/12 05:17:07;;;;;;;1.88;1.65;;;6.30;99.90;;;;;;4895783;29;20041;-93
2021/01/12 05:19:33;;;;;;;1.42;1.10;;;6.20;99.90;;;;;;4911790;29;20438;-93
2021/01/12 05:22:02;;;;;;;1.33;1.13;;;6.20;99.90;;;;;;4905273;29;20017;-92
2021/01/12 05:24:29;;;;;;;2.25;1.10;;;6.20;99.90;;;;;;4871679;29;20037;-92
2021/01/12 05:27:08;;;;;;;1.27;1.17;;;6.10;99.90;;;;;;4864025;29;20393;-94
2021/01/12 05:29:34;;;;;;;2.15;1.38;;;6.30;99.90;;;;;;4884281;29;20029;-92
2021/01/12 05:32:10;;;;;;;1.55;1.30;;;6.30;99.90;;;;;;4866106;29;20034;-94
2021/01/12 05:34:39;;;;;;;2.50;1.55;;;6.30;99.90;;;;;;4884782;29;20017;-93
2021/01/12 05:37:07;;;;;;;1.45;1.30;;;6.20;99.90;;;;;;4899885;29;20041;-92
2021/01/12 05:39:40;;;;;;;2.10;1.23;;;6.30;99.90;;;;;;4869825;29;20026;-96
2021/01/12 05:42:11;;;;;;;1.13;0.90;;;6.30;99.90;;;;;;4851110;29;20098;-95
2021/01/12 05:44:39;;;;;;;1.38;0.90;;;6.30;99.90;;;;;;4851456;29;20037;-94
2021/01/12 05:47:14;;;;;;;1.70;1.13;;;6.30;99.90;;;;;;4851021;29;20022;-96
2021/01/12 05:49:43;;;;;;;1.88;0.90;;;6.30;99.90;;;;;;4850806;29;20030;-93
2021/01/12 05:52:11;;;;;;;4.70;1.45;;;6.30;99.90;;;;;;4840874;29;20066;-93
2021/01/12 05:54:37;;;;;;;1.08;0.98;;;6.30;99.90;;;;;;4860741;29;20033;-95
2021/01/12 05:57:14;;;;;;;4.68;2.25;;;6.30;99.90;;;;;;4865869;29;20034;-96
2021/01/12 05:59:42;;;;;;;1.67;1.05;;;6.30;99.90;;;;;;4832276;29;20141;-96
2021/01/12 06:02:17;;;;;;;1.13;1.00;;;6.30;99.90;;;;;;4821313;29;20027;-96
2021/01/12 06:04:44;;;;;;;0.95;0.93;;;6.20;99.90;;;;;;4819732;29;20035;-96
2021/01/12 06:07:14;;;;;;;1.30;1.20;;;6.30;99.90;;;;;;4821985;29;20080;-96
2021/01/12 06:09:41;;;;;;;1.25;1.15;;;6.20;99.90;;;;;;4833424;29;20018;-95
2021/01/12 06:12:08;;;;;;;1.25;1.15;;;6.20;99.90;;;;;;4861304;29;20034;-95
2021/01/12 06:14:40;;;;;;;3.15;1.80;;;6.20;99.90;;;;;;4869540;29;20037;-95
2021/01/12 06:17:10;;;;;;;2.13;1.05;;;6.30;99.90;;;;;;4841788;29;20365;-93
2021/01/12 06:19:43;;;;;;;2.13;1.00;;;6.30;99.90;;;;;;4834297;29;20178;-93
2021/01/12 06:22:23;;;;;;;1.83;1.30;;;6.30;99.90;;;;;;4854555;29;20026;-91
2021/01/12 06:25:06;;;;;;;4.50;1.60;;;6.30;99.90;;;;;;4883727;29;20033;-94
2021/01/12 06:27:40;;;;;;;1.80;1.30;;;6.30;99.90;;;;;;4878922;29;20049;-93
2021/01/12 06:30:08;;;;;;;4.13;1.42;;;6.40;99.90;;;;;;4870481;29;20026;-94
2021/01/12 06:32:35;;;;;;;1.25;1.05;;;6.30;99.90;;;;;;4874174;29;20017;-93
2021/01/12 06:35:08;;;;;;;1.08;0.98;;;6.40;99.90;;;;;;4891553;29;20045;-91
2021/01/12 06:37:41;;;;;;;1.15;1.05;;;6.40;99.90;;;;;;4904466;29;20059;-93
2021/01/12 06:40:11;;;;;;;1.30;1.10;;;6.30;99.90;;;;;;4879381;29;20030;-90
2021/01/12 06:42:46;;;;;;;0.80;0.80;;;6.30;99.90;;;;;;4893529;29;20471;-91
2021/01/12 06:45:12;;;;;;;0.95;0.82;;;6.30;99.90;;;;;;4873606;29;20420;-91
2021/01/12 06:47:48;;;;;;;0.88;0.88;;;6.40;99.90;;;;;;4870274;29;20048;-92
2021/01/12 06:50:19;;;;;;;2.90;1.38;;;6.40;99.90;;;;;;4876755;29;20029;-92
2021/01/12 06:52:47;;;;;;;0.98;0.98;;;6.40;99.90;;;;;;4895434;29;20025;-94
2021/01/12 06:55:22;;;;;;;2.00;1.00;;;6.40;99.90;;;;;;4881457;29;20029;-95
2021/01/12 06:57:49;;;;;;;2.13;1.17;;;6.40;99.90;;;;;;4902659;29;20047;-94
2021/01/12 07:00:20;;;;;;;1.35;0.98;;;6.40;99.90;;;;;;4887986;29;20084;-93
2021/01/12 07:02:56;;;;;;;1.85;1.17;;;6.40;99.90;;;;;;4887734;29;20017;-93
2021/01/12 07:05:22;;;;;;;1.90;1.50;;;6.40;99.90;;;;;;4949290;23;20036;-94
2021/01/12 07:07:55;;;;;;;1.08;0.98;;;6.40;99.90;;;;;;4884093;29;20093;-92
2021/01/12 07:10:24;;;;;;;1.67;1.13;;;6.40;99.90;;;;;;4901348;29;20025;-93
2021/01/12 07:12:52;;;;;;;1.52;1.33;;;6.40;99.90;;;;;;4862471;29;20045;-93
2021/01/12 07:15:20;;;;;;;2.30;1.63;;;6.40;99.90;;;;;;4882037;29;20029;-93
2021/01/12 07:17:50;;;;;;;3.80;1.70;;;6.50;99.90;;;;;;4888352;29;20029;-93
2021/01/12 07:20:30;;;;;;;6.72;2.28;;;6.50;99.90;;;;;;4888104;29;20039;-93
2021/01/12 07:23:06;;;;;;;2.85;2.55;;;6.50;99.90;;;;;;4914249;29;20093;-92
2021/01/12 07:25:37;;;;;;;3.95;2.83;;;6.50;99.90;;;;;;4874305;29;20021;-91
2021/01/12 07:28:22;;;;;;;5.55;3.42;;;6.50;99.90;;;;;;4879753;29;20033;-93
2021/01/12 07:30:58;;;;;;;7.07;3.65;;;6.50;99.90;;;;;;4882560;29;20036;-92
2021/01/12 07:34:02;;;;;;;6.47;3.67;;;6.60;99.90;;;;;;4882717;29;20050;-91
2021/01/12 07:36:50;;;;;;;6.53;4.03;;;6.60;99.90;;;;;;4779462;30;20414;-94
2021/01/12 07:39:17;;;;;;;5.20;3.40;;;6.60;99.90;;;;;;4785296;30;20155;-95
2021/01/12 07:42:15;;;;;;;7.70;4.07;;;6.50;99.90;;;;;;5240774;23;20041;31
2021/01/12 07:44:45;;;;;;;8.00;4.80;;;6.60;99.90;;;;;;5162363;23;20067;-94
2021/01/12 07:47:13;;;;;;;8.05;4.00;;;6.60;99.90;;;;;;4881491;29;20045;-93
2021/01/12 07:55:40;;;;;;;7.82;4.47;;;6.60;99.90;;;;;;4879617;29;20055;-94
2021/01/12 07:58:26;;;;;;;4.93;3.00;;;6.60;99.90;;;;;;4877004;29;20075;-95
2021/01/12 08:00:52;;;;;;;6.18;3.40;;;6.60;99.90;;;;;;5047160;23;20200;-92
2021/01/12 08:03:27;;;;;;;5.15;3.60;;;6.60;99.90;;;;;;4883982;29;20057;-93
2021/01/12 08:06:15;;;;;;;7.53;4.65;;;6.60;99.90;;;;;;4871995;29;20052;-93
2021/01/12 08:08:41;;;;;;;8.30;3.85;;;6.60;99.90;;;;;;4876347;29;20044;-93
2021/01/12 08:14:02;;;;;;;5.25;2.80;;;6.70;99.90;;;;;;5098214;23;20064;-91
2021/01/12 08:16:29;;;;;;;4.82;1.98;;;6.80;99.90;;;;;;4887391;29;20043;-92
2021/01/12 08:19:52;;;;;;;4.38;2.50;;;6.70;99.90;;;;;;4894252;29;20100;-91
2021/01/12 08:22:22;;;;;;;2.97;1.30;;;6.70;99.90;;;;;;4867903;29;20121;-91
2021/01/12 08:30:14;;;;;;;1.48;1.13;;;6.80;99.90;;;;;;4915782;29;20092;-90
2021/01/12 08:32:52;;;;;;;2.83;1.25;;;6.80;99.90;;;;;;4906808;29;20028;-95
2021/01/12 08:35:42;;;;;;;1.67;1.33;;;6.80;99.90;;;;;;4915864;29;20021;-92
2021/01/12 08:41:32;;;;;;;1.63;1.13;;;6.80;99.90;;;;;;4910654;29;20024;-92
2021/01/12 08:43:59;;;;;;;3.70;1.20;;;6.90;99.90;;;;;;4920728;29;20020;-92
2021/01/12 08:46:29;;;;;;;3.90;1.20;;;6.90;99.90;;;;;;4901148;29;20029;-89
2021/01/12 08:48:55;;;;;;;1.88;1.10;;;6.80;99.90;;;;;;4903730;29;20502;-91
2021/01/12 08:51:21;;;;;;;3.45;1.77;;;6.90;99.90;;;;;;4888474;29;20028;-92
2021/01/12 08:53:49;;;;;;;1.38;1.27;;;6.90;99.90;;;;;;4888757;29;20092;-91
2021/01/12 08:56:17;;;;;;;2.05;1.60;;;6.90;99.90;;;;;;4904606;29;20057;-92
2021/01/12 08:58:43;;;;;;;1.45;1.33;;;7.00;99.90;;;;;;4901064;29;20069;-92
2021/01/12 09:01:11;;;;;;;2.80;1.67;;;7.00;99.90;;;;;;4887364;29;20063;-93
2021/01/12 09:03:41;;;;;;;3.85;1.50;;;6.90;99.90;;;;;;4916294;29;20041;-90
2021/01/12 09:06:19;;;;;;;2.00;1.85;;;7.00;99.90;;;;;;4902039;29;20021;-91
2021/01/12 09:08:46;;;;;;;1.98;1.73;;;7.00;99.90;;;;;;4920811;29;20029;-88
2021/01/12 09:11:12;;;;;;;2.95;1.83;;;7.10;99.90;;;;;;4914270;29;20039;-92
2021/01/12 09:13:41;;;;;;;2.97;1.85;;;7.10;99.90;;;;;;4895555;29;20020;-90
2021/01/12 09:16:07;;;;;;;3.70;2.00;;;7.20;99.90;;;;;;4921303;29;20044;-93
2021/01/12 09:18:35;;;;;;;2.97;1.50;;;7.20;99.90;;;;;;4889296;29;20013;-91
2021/01/12 09:21:07;;;;;;;3.78;2.17;;;7.20;99.90;;;;;;4901308;29;20016;-89
2021/01/12 09:23:33;;;;;;;3.97;1.88;;;7.20;99.90;;;;;;4896812;29;20021;-92
2021/01/12 09:26:03;;;;;;;3.30;1.88;;;7.20;99.90;;;;;;4905721;29;20036;-92
2021/01/12 09:28:35;;;;;;;5.55;1.95;;;7.30;99.90;;;;;;4911691;29;20208;-93
2021/01/12 10:15:49;;;;;;;5.93;3.50;;;7.60;99.90;;;;;;5165716;23;20057;-92
2021/01/12 10:18:15;;;;;;;4.20;3.40;;;7.60;99.90;;;;;;4985723;23;20255;-87
2021/01/12 10:23:38;;;;;;;;;;;;;;;;;;;;;
2021/01/12 10:26:31;;;;;;;;;;;;;;;;;;;;;
2021/01/12 10:31:54;;;;;;;5.38;3.78;;;7.80;99.90;;;;;;5493751;23;19924;-92
2021/01/12 10:34:20;;;;;;;5.68;3.95;;;7.90;99.90;;;;;;5124549;23;20047;-92
2021/01/12 10:44:34;;;;;;;8.50;5.38;;;8.10;99.90;;;;;;5071053;23;20116;-94
2021/01/12 10:49:41;;;;;;;7.20;4.38;;;8.10;99.90;;;;;;4939709;23;20061;-91
2021/01/12 11:09:52;;;;;;;9.43;4.63;;;8.10;99.90;;;;;;4510943;27;20113;-94
2021/01/12 11:16:18;;;;;;;;;;;;;;;;;;;;;
2021/01/12 11:37:14;;;;;;;6.90;3.42;;;8.30;99.90;;;;;;4893346;23;20073;-94
2021/01/12 11:39:50;;;;;;;7.10;3.60;;;8.20;99.90;;;;;;4865912;29;20033;-94
2021/01/12 11:42:22;;;;;;;5.35;3.05;;;8.20;99.90;;;;;;4913230;29;20036;-93
2021/01/12 11:44:51;;;;;;;4.13;3.33;;;8.10;99.90;;;;;;4892643;29;20129;-93
2021/01/12 11:47:20;;;;;;;5.60;3.13;;;8.10;99.90;;;;;;4880027;29;20148;-93
2021/01/12 11:49:48;;;;;;;6.18;3.90;;;8.00;99.90;;;;;;4943050;23;20060;-93
2021/01/12 11:53:04;;;;;;;6.32;4.13;;;8.00;99.90;;;;;;4881783;29;20025;-93
2021/01/12 11:55:30;;;;;;;8.77;5.13;;;7.80;99.90;;;;;;5240593;23;20068;-92
2021/01/12 11:58:17;;;;;;;5.63;3.15;;;7.70;99.90;;;;;;5017834;23;20112;-88
2021/01/12 12:01:08;;;;;;;5.47;2.88;;;7.50;99.90;;;;;;4966298;23;20068;31
2021/01/12 12:06:24;;;;;;;3.22;2.70;;;7.30;99.90;;;;;;4960537;23;20052;-91
2021/01/12 12:08:50;;;;;;;4.57;2.70;;;7.20;99.90;;;;;;4883857;29;20033;-90
2021/01/12 12:11:18;;;;;;;4.32;2.70;;;7.20;99.90;;;;;;4862818;29;20097;-89
2021/01/12 12:13:53;;;;;;;6.32;2.45;;;7.20;99.90;;;;;;4873775;29;20044;-91
2021/01/12 12:16:20;;;;;;;6.82;3.63;;;7.20;99.90;;;;;;4887834;29;20060;-92
2021/01/12 12:19:08;;;;;;;2.90;2.42;;;7.30;99.90;;;;;;4875613;29;20103;-91
2021/01/12 12:21:51;;;;;;;4.55;2.95;;;7.20;99.90;;;;;;4849889;29;20101;-92
2021/01/12 12:24:35;;;;;;;5.97;2.83;;;7.10;99.90;;;;;;4870890;29;20581;-94
2021/01/12 12:27:02;;;;;;;4.60;3.38;;;7.10;99.90;;;;;;4878101;29;20033;-93
2021/01/12 12:29:57;;;;;;;6.75;2.83;;;7.00;99.90;;;;;;4880077;29;20104;-93
2021/01/12 12:32:24;;;;;;;3.60;2.63;;;7.00;99.90;;;;;;4883580;29;20088;-93
2021/01/12 12:38:11;;;;;;;;;;;7.00;99.90;;;;;;4891748;29;20044;-93
2021/01/12 12:40:50;;;;;;;;;;;;;;;;;;;;;
2021/01/12 12:48:51;;;;;;;2.53;2.08;;;6.80;99.90;;;;;;4957508;23;20128;-93
2021/01/12 12:53:51;;;;;;;4.57;1.70;;;6.80;99.90;;;;;;4904188;29;20037;-93
2021/01/12 12:56:23;;;;;;;2.13;1.63;;;6.70;99.90;;;;;;4902983;29;20033;-92
2021/01/12 12:58:52;;;;;;;2.33;2.00;;;6.70;99.90;;;;;;4902362;29;20047;-92
2021/01/12 13:01:22;;;;;;;3.40;1.52;;;6.70;99.90;;;;;;4896956;29;20378;-93
2021/01/12 13:03:51;;;;;;;2.75;1.45;;;6.70;99.90;;;;;;4893835;29;20206;-95
2021/01/12 13:06:17;;;;;;;3.03;1.83;;;6.70;99.90;;;;;;4903542;29;20075;-92
2021/01/12 13:09:08;;;;;;;3.03;1.60;;;6.70;99.90;;;;;;4903911;29;20025;-95
2021/01/12 13:11:54;;;;;;;2.22;1.75;;;6.80;99.90;;;;;;4891741;29;20073;-92
2021/01/12 13:14:20;;;;;;;5.03;1.40;;;6.80;99.90;;;;;;4900326;29;20029;-93
2021/01/12 13:16:52;;;;;;;3.35;1.80;;;6.80;99.90;;;;;;4883031;29;20097;-95
2021/01/12 13:20:11;;;;;;;4.40;1.88;;;6.80;99.90;;;;;;4915685;29;20019;-95
2021/01/12 13:23:03;;;;;;;2.42;1.63;;;6.70;99.90;;;;;;4906281;29;20013;-95
2021/01/12 13:25:31;;;;;;;3.47;2.22;;;6.80;99.90;;;;;;4768040;30;20042;-95
2021/01/12 13:28:08;;;;;;;2.15;1.67;;;6.80;99.90;;;;;;4809278;29;20050;-94
2021/01/12 14:29:18;;;;;;;5.30;1.42;;;5.70;99.90;;;;;;5525408;23;20156;-93
2021/01/12 15:18:10;;;;;;;3.78;1.25;;;4.80;99.90;;;;;;5556582;23;20263;-92
2021/01/12 15:20:55;;;;;;;3.45;1.52;;;5.00;99.90;;;;;;4906475;29;20059;-93
2021/01/12 15:32:35;;;;;;;5.57;1.45;;;4.90;99.90;;;;;;4983369;23;20037;-94
2021/01/12 15:35:01;;;;;;;6.65;1.88;;;4.90;99.90;;;;;;4888141;29;20092;-93
2021/01/12 15:52:20;;;;;;;6.30;1.83;;;4.20;99.90;;;;;;4920680;29;20054;-96
2021/01/12 15:55:21;;;;;;;7.22;2.40;;;4.10;99.90;;;;;;5110557;23;20052;-93
2021/01/12 15:58:26;;;;;;;7.63;3.40;;;4.20;99.90;;;;;;4888864;29;20131;-94
2021/01/12 16:00:54;;;;;;;14.52;7.38;;;4.10;99.90;;;;;;5407762;23;20037;-94
2021/01/12 16:03:56;;;;;;;17.33;7.93;;;3.90;99.90;;;;;;4895622;29;20025;-93
2021/01/12 16:27:08;;;;;;;10.30;2.80;;;3.30;99.90;;;;;;3943263;23;20057;-94
2021/01/12 16:52:59;;;;;;;6.60;2.10;;;3.00;99.90;;;;;;5018906;23;20096;-93
2021/01/12 16:57:55;;;;;;;9.38;2.53;;;2.90;99.90;;;;;;4901504;29;19919;-92
2021/01/12 17:00:25;;;;;;;16.77;3.22;;;3.20;99.90;;;;;;4970645;23;20085;-94
2021/01/12 17:03:00;;;;;;;9.25;2.88;;;3.30;99.90;;;;;;4885882;29;20024;-92
2021/01/12 17:08:39;;;;;;;9.25;2.50;;;3.50;99.90;;;;;;4877272;29;20101;-92
2021/01/12 17:11:12;;;;;;;20.38;3.63;;;3.60;99.90;;;;;;4887256;29;20025;-93
2021/01/12 18:14:46;;;;;;;;;;;4.20;99.90;;;;;;4918238;29;20033;-96
2021/01/12 18:17:26;;;;;;;6.73;3.07;;;4.00;99.90;;;;;;5243303;23;19965;-93
2021/01/12 18:19:57;;;;;;;5.75;2.55;;;3.90;99.90;;;;;;4908415;23;20053;-93
2021/01/12 18:22:43;;;;;;;11.85;3.42;;;3.80;99.90;;;;;;4882198;29;20030;-95
2021/01/12 18:25:13;;;;;;;3.38;2.22;;;3.80;99.90;;;;;;4867344;29;20046;-94
2021/01/12 18:36:34;;;;;;;17.52;3.88;;;3.70;99.90;;;;;;4997019;23;20053;-94
2021/01/12 18:43:13;;;;;;;7.07;2.60;;;3.60;99.90;;;;;;4888037;29;20027;-92
2021/01/12 18:53:34;;;;;;;10.38;3.58;;;3.20;99.90;;;;;;5716434;23;20073;-91
2021/01/12 19:09:06;;;;;;;15.20;3.15;;;3.00;99.90;;;;;;5564351;23;20882;31
2021/01/12 19:11:41;;;;;;;15.82;3.80;;;2.90;99.90;;;;;;5174036;23;20057;-95
2021/01/12 19:14:12;;;;;;;9.82;3.33;;;2.70;99.90;;;;;;4863315;29;20038;-95
2021/01/12 19:17:02;;;;;;;10.25;3.08;;;2.60;99.90;;;;;;4861411;29;20487;-94
2021/01/12 20:14:02;;;;;;;;;;;2.00;99.90;;;;;;5214286;23;20068;-89
2021/01/12 20:16:32;;;;;;;7.60;4.22;;;2.00;99.90;;;;;;4887038;29;19903;-91
2021/01/12 20:19:03;;;;;;;9.02;4.38;;;2.10;99.90;;;;;;4887076;29;20049;-90
2021/01/12 20:21:40;;;;;;;;;;;2.10;99.90;;;;;;4914001;29;20024;-88
2021/01/12 20:24:24;;;;;;;14.52;3.47;;;2.10;99.90;;;;;;4908415;29;19980;-88
2021/01/12 20:26:58;;;;;;;18.17;4.55;;;2.00;99.90;;;;;;4936610;23;20047;-92
2021/01/12 20:29:26;;;;;;;11.70;4.25;;;1.90;99.90;;;;;;4891030;29;20016;-94
2021/01/12 20:32:29;;;;;;;15.55;4.68;;;1.90;99.90;;;;;;4857192;29;20036;-94
2021/01/12 20:35:04;;;;;;;17.83;4.78;;;1.90;99.90;;;;;;4906840;29;20017;-89
2021/01/12 20:37:35;;;;;;;9.93;3.88;;;1.90;99.90;;;;;;4922068;29;20021;-91
2021/01/12 20:40:07;;;;;;;11.32;4.60;;;1.90;99.90;;;;;;4916636;29;20021;-92
2021/01/12 20:42:42;;;;;;;11.48;3.90;;;1.80;99.90;;;;;;4889892;29;20044;-91
2021/01/12 20:45:10;;;;;;;12.60;5.05;;;1.70;99.90;;;;;;4878537;29;20037;-91
2021/01/12 20:47:37;;;;;;;12.68;5.57;;;1.60;99.90;;;;;;4884261;29;20037;-92
2021/01/12 20:50:23;;;;;;;18.88;6.68;;;1.60;99.90;;;;;;4866764;29;20029;-90
2021/01/12 20:52:59;;;;;;;13.43;5.32;;;1.50;99.90;;;;;;4910603;29;20032;-91
2021/01/12 20:55:50;;;;;;;14.38;5.72;;;1.40;99.90;;;;;;4889692;29;20032;-92
2021/01/12 20:58:18;;;;;;;13.02;6.20;;;1.30;99.90;;;;;;4889418;29;20500;-93
2021/01/12 21:00:44;;;;;;;15.77;6.93;;;1.30;99.90;;;;;;4890330;29;20028;-92
2021/01/12 21:03:12;;;;;;;19.23;6.95;;;1.10;99.90;;;;;;4877519;29;20052;-90
2021/01/12 21:05:45;;;;;;;24.30;9.57;;;1.30;99.90;;;;;;4875179;29;20081;-91